createdAt,value
2019-02-27T00:01:57.370Z,6.40
2019-02-27T00:04:28.508Z,5.27
2019-02-27T00:06:59.867Z,11.97
2019-02-27T00:09:32.689Z,3.40
2019-02-27T00:12:02.365Z,4.00
2019-02-27T00:14:33.923Z,4.67
2019-02-27T00:17:04.498Z,3.97
2019-02-27T00:19:36.078Z,7.93
2019-02-27T00:22:07.359Z,5.07
2019-02-27T00:24:38.310Z,9.43
2019-02-27T00:27:09.190Z,3.63
2019-02-27T00:29:39.589Z,3.10
2019-02-27T00:32:10.524Z,1.87
2019-02-27T00:34:41.866Z,6.43
2019-02-27T00:37:12.422Z,3.23
2019-02-27T00:39:43.428Z,2.97
2019-02-27T00:42:16.983Z,4.70
2019-02-27T00:44:47.686Z,5.70
2019-02-27T00:47:20.204Z,3.70
2019-02-27T00:49:50.812Z,4.90
2019-02-27T00:52:21.141Z,3.37
2019-02-27T00:54:52.022Z,4.87
2019-02-27T00:57:22.549Z,5.57
2019-02-27T00:59:52.695Z,2.67
2019-02-27T01:02:23.278Z,2.97
2019-02-27T01:04:54.173Z,5.20
2019-02-27T01:07:25.004Z,3.90
2019-02-27T01:09:56.110Z,9.63
2019-02-27T01:12:26.978Z,3.37
2019-02-27T01:14:58.199Z,2.77
2019-02-27T01:17:28.484Z,3.60
2019-02-27T01:19:58.802Z,3.87
2019-02-27T01:22:30.002Z,4.03
2019-02-27T01:25:00.744Z,8.13
2019-02-27T01:27:31.325Z,3.63
2019-02-27T01:30:01.877Z,2.80
2019-02-27T01:32:32.680Z,5.20
2019-02-27T01:35:03.697Z,3.80
2019-02-27T01:37:34.154Z,2.67
2019-02-27T01:40:05.179Z,9.40
2019-02-27T01:42:36.048Z,5.43
2019-02-27T01:45:09.717Z,2.40
2019-02-27T01:47:40.659Z,3.87
2019-02-27T01:50:32.842Z,2.60
2019-02-27T01:53:07.046Z,4.03
2019-02-27T01:55:37.614Z,1.90
2019-02-27T01:58:09.624Z,5.27
2019-02-27T02:00:42.204Z,1.40
2019-02-27T02:03:14.292Z,2.87
2019-02-27T02:05:46.138Z,3.80
2019-02-27T02:08:17.290Z,3.93
2019-02-27T02:10:47.406Z,4.00
2019-02-27T02:13:48.338Z,6.23
2019-02-27T02:16:44.598Z,1.97
2019-02-27T02:19:53.994Z,3.03
2019-02-27T02:23:13.943Z,3.50
2019-02-27T02:25:54.070Z,2.33
2019-02-27T02:28:41.934Z,4.77
2019-02-27T02:31:52.921Z,2.33
2019-02-27T02:34:44.753Z,3.13
2019-02-27T02:37:46.952Z,2.53
2019-02-27T02:41:08.482Z,5.20
2019-02-27T02:44:20.603Z,4.20
2019-02-27T02:47:31.290Z,4.30
2019-02-27T02:51:03.723Z,7.23
2019-02-27T02:54:00.685Z,2.23
2019-02-27T02:57:06.037Z,3.97
2019-02-27T02:59:51.521Z,5.53
2019-02-27T03:03:02.223Z,2.30
2019-02-27T03:06:11.028Z,3.50
2019-02-27T03:08:55.393Z,4.03
2019-02-27T03:11:43.638Z,2.70
2019-02-27T03:14:30.840Z,3.07
2019-02-27T03:17:29.920Z,3.47
2019-02-27T03:20:30.955Z,1.83
2019-02-27T03:23:26.070Z,3.07
2019-02-27T03:26:26.312Z,6.70
2019-02-27T03:29:15.721Z,2.07
2019-02-27T03:32:08.306Z,2.30
2019-02-27T03:35:27.931Z,1.67
2019-02-27T03:38:23.834Z,2.40
2019-02-27T03:41:29.958Z,4.07
2019-02-27T03:44:24.221Z,2.13
2019-02-27T03:47:15.645Z,3.43
2019-02-27T03:50:16.119Z,3.23
2019-02-27T03:52:58.109Z,3.90
2019-02-27T03:55:58.265Z,3.03
2019-02-27T03:58:47.722Z,1.80
2019-02-27T04:01:36.073Z,3.33
2019-02-27T04:04:30.549Z,2.83
2019-02-27T04:07:31.838Z,3.30
2019-02-27T04:10:02.271Z,7.70
2019-02-27T04:12:33.230Z,3.90
2019-02-27T04:15:04.661Z,1.60
2019-02-27T04:17:33.751Z,3.23
2019-02-27T04:20:05.258Z,5.53
2019-02-27T04:22:37.469Z,2.70
2019-02-27T04:25:08.409Z,2.23
2019-02-27T04:27:39.569Z,4.30
2019-02-27T04:30:14.736Z,2.80
2019-02-27T04:32:47.691Z,2.20
2019-02-27T04:35:16.667Z,2.07
2019-02-27T04:37:47.447Z,4.60
2019-02-27T04:40:17.926Z,2.63
2019-02-27T04:42:49.101Z,1.70
2019-02-27T04:45:20.080Z,1.90
2019-02-27T04:47:50.529Z,1.57
2019-02-27T04:50:21.542Z,2.73
2019-02-27T04:52:51.995Z,3.20
2019-02-27T04:55:23.023Z,2.17
2019-02-27T04:57:54.164Z,1.40
2019-02-27T05:00:26.359Z,4.20
2019-02-27T05:02:57.283Z,1.83
2019-02-27T05:05:28.022Z,2.80
2019-02-27T05:07:58.615Z,2.47
2019-02-27T05:10:29.314Z,13.10
2019-02-27T05:13:00.021Z,4.43
2019-02-27T05:15:30.560Z,10.13
2019-02-27T05:18:00.727Z,13.07
2019-02-27T05:20:32.813Z,3.90
2019-02-27T05:23:03.194Z,3.47
2019-02-27T05:25:33.670Z,1.80
2019-02-27T05:28:04.862Z,6.67
2019-02-27T05:30:35.618Z,1.87
2019-02-27T05:33:06.142Z,0.70
2019-02-27T05:35:37.101Z,4.93
2019-02-27T05:38:07.783Z,1.77
2019-02-27T05:40:38.973Z,6.97
2019-02-27T05:43:13.248Z,4.57
2019-02-27T05:45:42.502Z,4.10
2019-02-27T05:48:13.448Z,3.87
2019-02-27T05:50:44.453Z,4.27
2019-02-27T05:53:16.142Z,2.90
2019-02-27T05:55:47.046Z,2.30
2019-02-27T05:58:17.811Z,6.40
2019-02-27T06:00:48.564Z,3.40
2019-02-27T06:03:19.061Z,3.13
2019-02-27T06:05:51.420Z,2.30
2019-02-27T06:08:22.294Z,1.97
2019-02-27T06:10:56.008Z,1.20
2019-02-27T06:13:25.730Z,2.23
2019-02-27T06:15:56.686Z,2.40
2019-02-27T06:18:27.718Z,3.20
2019-02-27T06:20:59.198Z,1.63
2019-02-27T06:23:29.910Z,1.73
2019-02-27T06:26:00.834Z,4.53
2019-02-27T06:28:31.802Z,3.17
2019-02-27T06:31:02.723Z,1.90
2019-02-27T06:33:33.902Z,3.43
2019-02-27T06:36:05.360Z,3.90
2019-02-27T06:38:37.014Z,4.90
2019-02-27T06:41:07.962Z,3.57
2019-02-27T06:43:39.095Z,2.57
2019-02-27T06:46:09.345Z,2.80
2019-02-27T06:48:43.022Z,5.43
2019-02-27T06:51:12.954Z,3.27
2019-02-27T06:53:43.688Z,4.07
2019-02-27T06:56:14.638Z,5.47
2019-02-27T06:58:47.546Z,1.70
2019-02-27T07:01:17.552Z,4.70
2019-02-27T07:03:47.875Z,3.00
2019-02-27T07:06:21.369Z,8.00
2019-02-27T07:08:50.505Z,2.37
2019-02-27T07:11:21.316Z,4.47
2019-02-27T07:13:52.464Z,4.97
2019-02-27T07:16:23.746Z,3.53
2019-02-27T07:18:54.619Z,2.60
2019-02-27T07:21:25.465Z,3.03
2019-02-27T07:23:58.537Z,3.30
2019-02-27T07:26:29.635Z,2.43
2019-02-27T07:29:00.175Z,10.60
2019-02-27T07:31:31.109Z,3.77
2019-02-27T07:34:02.270Z,3.07
2019-02-27T07:36:32.667Z,3.43
2019-02-27T07:39:05.172Z,5.83
2019-02-27T07:41:36.328Z,4.13
2019-02-27T07:44:07.455Z,6.60
2019-02-27T07:46:37.982Z,3.30
2019-02-27T07:49:08.743Z,16.60
2019-02-27T07:51:39.891Z,4.70
2019-02-27T07:54:10.846Z,5.70
2019-02-27T07:56:40.957Z,11.67
2019-02-27T07:59:13.141Z,13.57
2019-02-27T08:01:45.095Z,7.10
2019-02-27T08:04:19.060Z,14.10
2019-02-27T08:06:48.203Z,12.20
2019-02-27T08:09:18.545Z,12.20
2019-02-27T08:11:49.237Z,23.40
2019-02-27T08:14:20.401Z,12.47
2019-02-27T08:16:51.170Z,8.00
2019-02-27T08:19:22.542Z,10.80
2019-02-27T08:21:52.628Z,9.20
2019-02-27T08:24:24.849Z,9.87
2019-02-27T08:26:55.903Z,12.10
2019-02-27T08:29:26.536Z,10.43
2019-02-27T08:32:01.009Z,8.00
2019-02-27T08:34:29.197Z,6.53
2019-02-27T08:37:00.359Z,5.80
2019-02-27T08:39:31.304Z,7.67
2019-02-27T08:42:03.576Z,8.40
2019-02-27T08:44:34.409Z,6.37
2019-02-27T08:47:07.744Z,6.67
2019-02-27T08:49:37.746Z,6.47
2019-02-27T08:52:09.099Z,6.10
2019-02-27T08:54:39.548Z,6.47
2019-02-27T08:57:11.891Z,7.53
2019-02-27T08:59:42.369Z,8.67
2019-02-27T09:02:12.258Z,8.10
2019-02-27T09:04:45.562Z,7.90
2019-02-27T09:07:16.393Z,6.57
2019-02-27T09:09:51.175Z,4.60
2019-02-27T09:12:19.908Z,6.83
2019-02-27T09:14:50.441Z,4.77
2019-02-27T09:17:21.469Z,9.50
2019-02-27T09:19:51.930Z,6.93
2019-02-27T09:22:21.759Z,7.10
2019-02-27T09:24:52.568Z,4.43
2019-02-27T09:27:22.923Z,7.23
2019-02-27T09:29:54.844Z,5.60
2019-02-27T09:32:24.803Z,6.83
2019-02-27T09:34:57.037Z,6.90
2019-02-27T09:37:26.882Z,6.60
2019-02-27T09:39:56.942Z,7.63
2019-02-27T09:42:27.744Z,5.50
2019-02-27T09:44:57.904Z,6.03
2019-02-27T09:47:28.984Z,12.33
2019-02-27T09:49:59.846Z,6.93
2019-02-27T09:52:30.904Z,6.50
2019-02-27T09:55:01.022Z,4.67
2019-02-27T09:57:32.925Z,5.97
2019-02-27T10:00:07.268Z,4.80
2019-02-27T10:02:39.189Z,6.90
2019-02-27T10:05:09.730Z,7.30
2019-02-27T10:07:40.712Z,11.30
2019-02-27T10:10:11.104Z,7.43
2019-02-27T10:12:42.354Z,5.60
2019-02-27T10:15:13.869Z,6.67
2019-02-27T10:17:44.848Z,8.77
2019-02-27T10:20:15.998Z,7.30
2019-02-27T10:22:46.315Z,6.77
2019-02-27T10:25:17.264Z,8.10
2019-02-27T10:27:48.406Z,7.73
2019-02-27T10:30:20.098Z,7.37
2019-02-27T10:32:51.532Z,12.90
2019-02-27T10:35:22.996Z,9.13
2019-02-27T10:37:54.678Z,13.83
2019-02-27T10:40:25.376Z,11.53
2019-02-27T10:42:57.161Z,6.00
2019-02-27T10:45:27.918Z,6.93
2019-02-27T10:47:58.776Z,9.00
2019-02-27T10:50:30.787Z,6.07
2019-02-27T10:53:01.934Z,8.50
2019-02-27T10:55:32.512Z,8.17
2019-02-27T10:58:03.358Z,10.50
2019-02-27T11:00:36.201Z,6.50
2019-02-27T11:03:07.962Z,7.63
2019-02-27T11:05:38.628Z,8.47
2019-02-27T11:08:10.049Z,8.50
2019-02-27T11:10:40.306Z,8.40
2019-02-27T11:13:10.905Z,8.57
2019-02-27T11:15:43.158Z,11.30
2019-02-27T11:18:14.027Z,12.63
2019-02-27T11:20:44.981Z,9.13
2019-02-27T11:23:15.454Z,5.83
2019-02-27T11:25:46.876Z,8.17
2019-02-27T11:28:17.876Z,5.40
2019-02-27T11:30:48.753Z,8.07
2019-02-27T11:33:25.649Z,7.70
2019-02-27T11:35:53.770Z,13.37
2019-02-27T11:38:25.450Z,11.27
2019-02-27T11:40:56.610Z,7.57
2019-02-27T11:43:28.389Z,7.17
2019-02-27T11:45:59.515Z,12.03
2019-02-27T11:48:30.007Z,20.97
2019-02-27T11:51:00.604Z,8.80
2019-02-27T11:53:35.654Z,8.17
2019-02-27T11:56:04.124Z,9.97
2019-02-27T11:58:38.099Z,9.57
2019-02-27T12:01:08.785Z,9.10
2019-02-27T12:03:40.225Z,10.20
2019-02-27T12:06:10.757Z,16.90
2019-02-27T12:08:41.710Z,8.93
2019-02-27T12:11:14.270Z,10.90
2019-02-27T12:13:45.538Z,9.57
2019-02-27T12:16:18.343Z,6.93
2019-02-27T12:18:48.758Z,8.63
2019-02-27T12:21:19.900Z,8.63
2019-02-27T12:23:50.917Z,8.83
2019-02-27T12:26:21.791Z,10.77
2019-02-27T12:28:52.811Z,7.70
2019-02-27T12:31:24.493Z,14.90
2019-02-27T12:33:56.855Z,11.07
2019-02-27T12:36:27.819Z,8.10
2019-02-27T12:38:58.489Z,9.03
2019-02-27T12:41:29.950Z,9.20
2019-02-27T12:44:02.283Z,8.83
2019-02-27T12:46:34.168Z,8.37
2019-02-27T12:49:04.587Z,10.57
2019-02-27T12:51:35.264Z,13.70
2019-02-27T12:54:07.924Z,14.50
2019-02-27T12:56:41.542Z,8.60
2019-02-27T12:59:11.018Z,9.87
2019-02-27T13:01:41.267Z,8.60
2019-02-27T13:04:15.961Z,11.83
2019-02-27T13:06:45.079Z,7.63
2019-02-27T13:09:16.433Z,10.07
2019-02-27T13:11:47.574Z,9.33
2019-02-27T13:14:18.468Z,9.10
2019-02-27T13:16:50.210Z,9.53
2019-02-27T13:19:21.649Z,11.23
2019-02-27T13:21:52.281Z,13.67
2019-02-27T13:24:25.177Z,11.50
2019-02-27T13:26:55.900Z,9.70
2019-02-27T13:29:26.234Z,9.77
2019-02-27T13:31:56.753Z,10.43
2019-02-27T13:34:27.008Z,19.30
2019-02-27T13:36:57.149Z,13.87
2019-02-27T13:39:28.152Z,11.03
2019-02-27T13:41:59.302Z,10.60
2019-02-27T13:44:29.306Z,10.60
2019-02-27T13:47:00.306Z,15.47
2019-02-27T13:49:31.128Z,16.47
2019-02-27T13:52:01.982Z,14.93
2019-02-27T13:54:34.810Z,11.80
2019-02-27T13:57:04.377Z,15.80
2019-02-27T13:59:35.913Z,11.20
2019-02-27T14:02:07.467Z,12.70
2019-02-27T14:04:38.023Z,16.37
2019-02-27T14:07:09.152Z,14.73
2019-02-27T14:09:41.523Z,12.80
2019-02-27T14:12:13.079Z,15.80
2019-02-27T14:14:42.994Z,13.10
2019-02-27T14:17:13.893Z,13.30
2019-02-27T14:19:44.294Z,16.53
2019-02-27T14:22:14.496Z,15.43
2019-02-27T14:24:45.159Z,14.10
2019-02-27T14:27:15.315Z,19.33
2019-02-27T14:29:46.688Z,19.33
2019-02-27T14:32:17.224Z,13.33
2019-02-27T14:34:47.770Z,15.07
2019-02-27T14:37:19.392Z,13.47
2019-02-27T14:39:50.620Z,16.00
2019-02-27T14:42:21.357Z,14.17
2019-02-27T14:44:52.108Z,13.60
2019-02-27T14:47:22.606Z,13.73
2019-02-27T14:49:54.444Z,14.30
2019-02-27T14:52:25.386Z,14.77
2019-02-27T14:54:56.252Z,16.10
2019-02-27T14:57:26.791Z,15.17
2019-02-27T14:59:57.132Z,14.10
2019-02-27T15:02:27.443Z,13.63
2019-02-27T15:04:57.587Z,12.17
2019-02-27T15:07:28.511Z,14.93
2019-02-27T15:09:59.551Z,15.03
2019-02-27T15:12:30.492Z,15.43
2019-02-27T15:15:01.080Z,13.63
2019-02-27T15:17:32.758Z,12.37
2019-02-27T15:20:05.825Z,13.70
2019-02-27T15:22:37.641Z,12.83
2019-02-27T15:25:10.645Z,14.33
2019-02-27T15:27:41.393Z,12.20
2019-02-27T15:30:17.713Z,15.23
2019-02-27T15:32:48.579Z,13.17
2019-02-27T15:35:21.916Z,11.43
2019-02-27T15:37:53.555Z,11.13
2019-02-27T15:40:29.529Z,9.43
2019-02-27T15:42:59.378Z,9.77
2019-02-27T15:45:31.297Z,5.97
2019-02-27T15:48:06.445Z,7.57
2019-02-27T15:50:33.606Z,6.70
2019-02-27T15:53:06.389Z,6.67
2019-02-27T15:55:37.984Z,9.30
2019-02-27T15:58:09.091Z,6.23
2019-02-27T16:00:39.857Z,13.33
2019-02-27T16:03:11.765Z,13.03
2019-02-27T16:05:43.357Z,8.33
2019-02-27T16:08:15.311Z,9.63
2019-02-27T16:10:54.510Z,6.70
2019-02-27T16:13:18.391Z,6.10
2019-02-27T16:15:49.582Z,7.63
2019-02-27T16:18:20.479Z,4.03
2019-02-27T16:20:50.811Z,6.73
2019-02-27T16:23:21.797Z,6.07
2019-02-27T16:25:53.719Z,8.17
2019-02-27T16:28:24.707Z,7.20
2019-02-27T16:30:55.248Z,6.60
2019-02-27T16:33:28.539Z,4.60
2019-02-27T16:35:59.587Z,9.50
2019-02-27T16:38:31.521Z,5.93
2019-02-27T16:41:03.102Z,8.13
2019-02-27T16:43:33.415Z,5.13
2019-02-27T16:46:07.755Z,5.03
2019-02-27T16:48:37.170Z,3.50
2019-02-27T16:51:07.588Z,4.13
2019-02-27T16:53:37.623Z,5.40
2019-02-27T16:56:11.811Z,4.67
2019-02-27T16:58:40.948Z,3.87
2019-02-27T17:01:11.694Z,3.90
2019-02-27T17:03:45.062Z,4.50
2019-02-27T17:06:18.223Z,5.00
2019-02-27T17:08:48.003Z,5.40
2019-02-27T17:11:18.638Z,4.63
2019-02-27T17:13:50.357Z,4.93
2019-02-27T17:16:22.256Z,5.60
2019-02-27T17:18:52.737Z,6.17
2019-02-27T17:21:26.055Z,4.90
2019-02-27T17:23:55.709Z,8.40
2019-02-27T17:26:27.059Z,3.53
2019-02-27T17:28:57.794Z,3.43
2019-02-27T17:31:28.400Z,7.60
2019-02-27T17:33:58.860Z,12.13
2019-02-27T17:36:31.986Z,7.03
2019-02-27T17:39:02.717Z,8.57
2019-02-27T17:41:35.370Z,7.53
2019-02-27T17:44:06.318Z,5.93
2019-02-27T17:46:39.465Z,5.53
2019-02-27T17:49:10.463Z,10.50
2019-02-27T17:51:41.821Z,6.33
2019-02-27T17:54:12.941Z,8.37
2019-02-27T17:56:43.913Z,6.20
2019-02-27T17:59:14.647Z,8.50
2019-02-27T18:01:46.939Z,6.33
2019-02-27T18:04:17.763Z,7.63
2019-02-27T18:06:48.508Z,6.93
2019-02-27T18:09:19.642Z,12.23
2019-02-27T18:11:52.644Z,10.37
2019-02-27T18:14:22.362Z,7.63
2019-02-27T18:16:52.892Z,12.33
2019-02-27T18:19:23.782Z,11.87
2019-02-27T18:21:54.313Z,22.80
2019-02-27T18:24:25.510Z,17.10
2019-02-27T18:26:56.458Z,6.43
2019-02-27T18:29:26.921Z,5.53
2019-02-27T18:31:58.395Z,7.10
2019-02-27T18:34:31.131Z,7.20
2019-02-27T18:37:01.651Z,7.57
2019-02-27T18:39:36.387Z,7.87
2019-02-27T18:42:03.951Z,6.77
2019-02-27T18:44:35.111Z,10.20
2019-02-27T18:47:07.492Z,8.03
2019-02-27T18:49:38.323Z,12.90
2019-02-27T18:52:09.324Z,12.00
2019-02-27T18:54:40.255Z,8.50
2019-02-27T18:57:11.928Z,7.50
2019-02-27T18:59:42.953Z,16.33
2019-02-27T19:02:13.974Z,6.43
2019-02-27T19:04:45.109Z,6.33
2019-02-27T19:07:17.227Z,6.03
2019-02-27T19:09:47.717Z,16.43
2019-02-27T19:12:25.324Z,8.63
2019-02-27T19:14:52.775Z,13.50
2019-02-27T19:17:23.788Z,11.73
2019-02-27T19:19:56.147Z,4.73
2019-02-27T19:22:28.047Z,10.40
2019-02-27T19:25:00.187Z,5.17
2019-02-27T19:27:31.756Z,10.10
2019-02-27T19:30:06.237Z,8.40
2019-02-27T19:32:35.731Z,6.50
2019-02-27T19:35:07.285Z,6.60
2019-02-27T19:37:39.187Z,8.70
2019-02-27T19:40:12.857Z,8.00
2019-02-27T19:42:55.560Z,4.70
2019-02-27T19:45:26.399Z,5.27
2019-02-27T19:47:57.502Z,4.53
2019-02-27T19:50:28.517Z,5.23
2019-02-27T19:53:03.318Z,9.00
2019-02-27T19:55:31.917Z,10.43
2019-02-27T19:58:02.807Z,7.60
2019-02-27T20:00:35.129Z,8.30
2019-02-27T20:03:05.856Z,7.97
2019-02-27T20:05:36.767Z,8.90
2019-02-27T20:08:10.906Z,5.77
2019-02-27T20:10:44.009Z,6.30
2019-02-27T20:13:14.789Z,10.27
2019-02-27T20:15:46.513Z,4.70
2019-02-27T20:18:17.713Z,11.70
2019-02-27T20:20:49.053Z,6.10
2019-02-27T20:23:20.398Z,9.33
2019-02-27T20:25:50.458Z,4.20
2019-02-27T20:28:21.469Z,5.40
2019-02-27T20:30:53.638Z,7.50
2019-02-27T20:33:24.582Z,5.60
2019-02-27T20:35:55.621Z,9.47
2019-02-27T20:38:27.930Z,8.20
2019-02-27T20:40:58.239Z,7.40
2019-02-27T20:43:29.457Z,8.53
2019-02-27T20:46:00.735Z,6.63
2019-02-27T20:48:32.168Z,14.97
2019-02-27T20:51:06.057Z,10.53
2019-02-27T20:53:37.263Z,10.80
2019-02-27T20:56:08.200Z,7.33
2019-02-27T20:58:39.556Z,4.93
2019-02-27T21:01:13.635Z,4.23
2019-02-27T21:03:42.694Z,11.20
2019-02-27T21:06:13.703Z,5.67
2019-02-27T21:08:43.940Z,8.63
2019-02-27T21:11:13.801Z,5.40
2019-02-27T21:13:43.970Z,14.37
2019-02-27T21:16:14.356Z,7.17
2019-02-27T21:18:46.019Z,7.47
2019-02-27T21:21:19.852Z,7.47
2019-02-27T21:23:49.187Z,14.53
2019-02-27T21:26:22.643Z,5.43
2019-02-27T21:28:58.723Z,12.47
2019-02-27T21:31:27.580Z,4.40
2019-02-27T21:33:56.646Z,6.97
2019-02-27T21:36:27.605Z,5.60
2019-02-27T21:38:58.734Z,7.40
2019-02-27T21:41:29.882Z,6.40
2019-02-27T21:44:01.246Z,7.07
2019-02-27T21:46:33.102Z,3.70
2019-02-27T21:49:03.779Z,6.70
2019-02-27T21:51:34.439Z,9.07
2019-02-27T21:54:05.028Z,3.20
2019-02-27T21:56:35.662Z,6.13
2019-02-27T21:59:06.458Z,4.80
2019-02-27T22:01:38.056Z,6.47
2019-02-27T22:04:09.766Z,7.30
2019-02-27T22:06:41.150Z,7.20
2019-02-27T22:09:13.469Z,7.10
2019-02-27T22:11:44.652Z,5.50
2019-02-27T22:14:16.652Z,22.13
2019-02-27T22:16:47.510Z,6.10
2019-02-27T22:19:19.197Z,11.30
2019-02-27T22:21:50.708Z,5.73
2019-02-27T22:24:21.545Z,10.40
2019-02-27T22:26:52.390Z,3.40
2019-02-27T22:29:25.195Z,4.43
2019-02-27T22:31:56.332Z,6.33
2019-02-27T22:34:28.016Z,5.37
2019-02-27T22:36:58.736Z,6.33
2019-02-27T22:39:31.652Z,4.37
2019-02-27T22:42:02.554Z,6.40
2019-02-27T22:44:33.708Z,7.10
2019-02-27T22:47:04.583Z,4.50
2019-02-27T22:49:35.596Z,6.77
2019-02-27T22:52:06.265Z,4.33
2019-02-27T22:54:37.214Z,4.60
2019-02-27T22:57:08.013Z,7.50
2019-02-27T22:59:39.171Z,9.13
2019-02-27T23:02:10.512Z,8.70
2019-02-27T23:04:41.282Z,14.23
2019-02-27T23:07:11.940Z,11.80
2019-02-27T23:09:42.645Z,6.50
2019-02-27T23:12:13.871Z,4.17
2019-02-27T23:14:44.345Z,7.23
2019-02-27T23:17:15.549Z,7.73
2019-02-27T23:19:46.972Z,5.67
2019-02-27T23:22:17.655Z,6.50
2019-02-27T23:25:06.980Z,3.77
2019-02-27T23:27:37.484Z,5.57
2019-02-27T23:30:07.649Z,6.50
2019-02-27T23:32:38.593Z,3.27
2019-02-27T23:35:08.751Z,3.50
2019-02-27T23:37:39.283Z,11.17
2019-02-27T23:40:17.241Z,6.43
2019-02-27T23:42:44.377Z,4.00
2019-02-27T23:45:15.738Z,7.37
2019-02-27T23:47:46.539Z,5.40
2019-02-27T23:50:17.895Z,10.03
2019-02-27T23:52:48.431Z,3.90
2019-02-27T23:55:19.565Z,4.40
2019-02-27T23:57:50.511Z,3.77
